Terminal Aerodrome Forecast
Issued by NWS

Home | Current Version | Previous Version | Text Only | Print | Product List | Glossary On
Versions: 1 2 3 4 5 6 7 8 9 10 11 12 13 14 15 16 17 18 19 20 21 22 23 24 25 26 27 28 29 30 31 32 33 34 35 36 37 38 39 40 41 42
000
FTUS41 KCAR 140520
TAFFVE
TAF
KFVE 140520Z 1406/1506 31008KT P6SM SCT250
     FM141200 16004KT P6SM BKN090 OVC120
     FM141600 18008KT P6SM VCSH OVC050
     FM141900 18008KT 6SM -SHSN OVC030
     FM142100 18007KT 3SM -SHSN OVC015
     FM150000 15007KT P6SM VCSH OVC025=

USA.gov is the U.S. government's official web portal to all federal, state and local government web resources and services.